createdAt,value
2019-01-23T00:02:41.240Z,0.70
2019-01-23T00:05:31.812Z,0.70
2019-01-23T00:08:14.995Z,0.60
2019-01-23T00:11:05.719Z,0.50
2019-01-23T00:13:49.315Z,0.60
2019-01-23T00:16:39.838Z,0.60
2019-01-23T00:19:23.375Z,0.40
2019-01-23T00:22:13.988Z,0.30
2019-01-23T00:24:56.991Z,0.30
2019-01-23T00:28:25.789Z,0.30
2019-01-23T00:31:11.119Z,0.30
2019-01-23T00:34:01.695Z,0.30
2019-01-23T00:36:45.142Z,0.10
2019-01-23T00:39:35.778Z,0.20
2019-01-23T00:42:19.994Z,0.20
2019-01-23T00:45:03.588Z,0.30
2019-01-23T00:47:54.284Z,0.30
2019-01-23T00:50:37.677Z,0.10
2019-01-23T00:53:28.195Z,0.20
2019-01-23T00:56:11.668Z,0.30
2019-01-23T00:59:02.271Z,0.30
2019-01-23T01:01:45.338Z,0.40
2019-01-23T01:07:39.005Z,0.50
2019-01-23T01:10:21.850Z,0.50
2019-01-23T01:13:12.334Z,0.50
2019-01-23T01:15:55.511Z,0.40
2019-01-23T01:18:27.009Z,0.30
2019-01-23T01:21:10.595Z,0.30
2019-01-23T01:24:01.182Z,0.30
2019-01-23T01:26:43.935Z,0.30
2019-01-23T01:29:34.514Z,0.20
2019-01-23T01:32:18.180Z,0.30
2019-01-23T01:35:08.783Z,0.30
2019-01-23T01:37:52.521Z,0.30
2019-01-23T01:40:43.078Z,0.30
2019-01-23T01:43:27.442Z,0.30
2019-01-23T01:46:10.477Z,0.30
2019-01-23T01:48:53.706Z,0.20
2019-01-23T01:51:44.307Z,0.20
2019-01-23T01:54:29.747Z,0.30
2019-01-23T01:57:22.213Z,0.30
2019-01-23T02:00:06.477Z,0.20
2019-01-23T02:02:57.569Z,0.20
2019-01-23T02:05:31.581Z,0.20
2019-01-23T02:08:22.213Z,0.20
2019-01-23T02:11:05.403Z,0.30
2019-01-23T02:13:55.975Z,0.30
2019-01-23T02:16:38.721Z,0.40
2019-01-23T02:19:29.294Z,0.30
2019-01-23T02:22:12.548Z,0.30
2019-01-23T02:25:03.203Z,0.20
2019-01-23T02:27:49.221Z,0.20
2019-01-23T02:30:40.095Z,0.30
2019-01-23T02:33:23.356Z,0.20
2019-01-23T02:36:14.036Z,0.20
2019-01-23T02:38:57.375Z,0.20
2019-01-23T02:41:28.908Z,0.20
2019-01-23T02:44:00.283Z,0.10
2019-01-23T02:46:50.851Z,0.10
2019-01-23T02:49:36.701Z,0.10
2019-01-23T02:52:27.287Z,0.10
2019-01-23T02:55:10.655Z,0.10
2019-01-23T02:57:42.102Z,0.10
2019-01-23T03:00:25.504Z,0.10
2019-01-23T03:03:16.025Z,0.10
2019-01-23T03:05:59.401Z,0.10
2019-01-23T03:08:50.041Z,-0.10
2019-01-23T03:11:33.039Z,-0.20
2019-01-23T03:14:23.564Z,-0.10
2019-01-23T03:17:06.934Z,-0.10
2019-01-23T03:19:58.522Z,0.00
2019-01-23T03:22:41.644Z,0.00
2019-01-23T03:25:33.166Z,0.10
2019-01-23T03:28:16.688Z,0.00
2019-01-23T03:33:37.370Z,0.00
2019-01-23T03:36:13.607Z,0.00
2019-01-23T03:38:50.011Z,0.00
2019-01-23T03:41:24.891Z,-0.10
2019-01-23T03:43:59.823Z,-0.20
2019-01-23T03:46:36.380Z,-0.20
2019-01-23T03:49:08.181Z,-0.20
2019-01-23T03:51:39.805Z,-0.20
2019-01-23T03:54:11.352Z,-0.20
2019-01-23T03:56:43.134Z,-0.20
2019-01-23T03:59:15.856Z,-0.20
2019-01-23T04:01:47.368Z,-0.30
2019-01-23T04:04:19.900Z,-0.30
2019-01-23T04:06:51.427Z,-0.30
2019-01-23T04:09:22.798Z,-0.40
2019-01-23T04:11:54.295Z,-0.40
2019-01-23T04:14:25.854Z,-0.50
2019-01-23T04:16:57.231Z,-0.50
2019-01-23T04:19:28.930Z,-0.60
2019-01-23T04:22:01.274Z,-0.60
2019-01-23T04:24:33.070Z,-0.60
2019-01-23T04:27:04.700Z,-0.60
2019-01-23T04:29:39.689Z,-0.60
2019-01-23T04:32:09.648Z,-0.70
2019-01-23T04:34:41.141Z,-0.70
2019-01-23T04:37:14.917Z,-0.70
2019-01-23T04:39:46.246Z,-0.80
2019-01-23T04:42:17.588Z,-0.90
2019-01-23T04:44:49.143Z,-0.90
2019-01-23T04:47:20.828Z,-0.90
2019-01-23T04:49:52.432Z,-0.90
2019-01-23T04:52:41.932Z,-0.90
2019-01-23T04:55:13.370Z,-1.00
2019-01-23T04:57:44.888Z,-1.00
2019-01-23T05:00:19.384Z,-1.00
2019-01-23T05:02:50.877Z,-1.00
2019-01-23T05:05:22.342Z,-0.90
2019-01-23T05:07:53.832Z,-0.90
2019-01-23T05:10:25.384Z,-0.80
2019-01-23T05:12:57.007Z,-0.70
2019-01-23T05:15:28.580Z,-0.70
2019-01-23T05:18:00.558Z,-0.60
2019-01-23T05:20:32.991Z,-0.40
2019-01-23T05:23:04.423Z,-0.20
2019-01-23T05:25:35.984Z,-0.10
2019-01-23T05:28:07.473Z,-0.10
2019-01-23T05:30:39.222Z,-0.10
2019-01-23T05:33:10.724Z,-0.20
2019-01-23T05:35:42.241Z,-0.20
2019-01-23T05:38:13.875Z,-0.30
2019-01-23T05:40:45.364Z,-0.30
2019-01-23T05:43:16.854Z,-0.40
2019-01-23T05:45:48.255Z,-0.50
2019-01-23T05:48:19.739Z,-0.50
2019-01-23T05:50:51.403Z,-0.60
2019-01-23T05:53:22.817Z,-0.70
2019-01-23T05:55:55.384Z,-0.70
2019-01-23T05:58:27.061Z,-0.80
2019-01-23T06:00:58.665Z,-1.00
2019-01-23T06:03:30.072Z,-1.10
2019-01-23T06:06:01.609Z,-1.20
2019-01-23T06:08:33.130Z,-1.30
2019-01-23T06:11:04.657Z,-1.40
2019-01-23T06:13:36.136Z,-1.40
2019-01-23T06:16:07.596Z,-1.40
2019-01-23T06:18:39.132Z,-1.50
2019-01-23T06:21:10.567Z,-1.50
2019-01-23T06:23:42.132Z,-1.50
2019-01-23T06:26:13.730Z,-1.30
2019-01-23T06:28:45.307Z,-1.10
2019-01-23T06:31:16.781Z,-0.90
2019-01-23T06:33:48.304Z,-0.80
2019-01-23T06:36:19.843Z,-0.70
2019-01-23T06:38:51.399Z,-0.70
2019-01-23T06:41:22.941Z,-0.70
2019-01-23T06:43:54.411Z,-0.80
2019-01-23T06:46:26.318Z,-0.90
2019-01-23T06:48:57.939Z,-1.10
2019-01-23T06:51:29.457Z,-1.20
2019-01-23T06:54:01.073Z,-1.20
2019-01-23T06:56:32.504Z,-1.20
2019-01-23T06:59:04.036Z,-1.40
2019-01-23T07:01:35.573Z,-1.50
2019-01-23T07:04:07.164Z,-1.60
2019-01-23T07:06:38.713Z,-1.70
2019-01-23T07:09:11.026Z,-1.70
2019-01-23T07:11:42.493Z,-1.70
2019-01-23T07:14:14.030Z,-1.70
2019-01-23T07:16:46.795Z,-1.70
2019-01-23T07:19:18.243Z,-1.70
2019-01-23T07:21:49.706Z,-1.70
2019-01-23T07:24:21.207Z,-1.70
2019-01-23T07:26:52.716Z,-1.80
2019-01-23T07:29:24.356Z,-1.80
2019-01-23T07:31:55.905Z,-1.80
2019-01-23T07:34:27.410Z,-1.90
2019-01-23T07:36:58.936Z,-1.90
2019-01-23T07:39:30.396Z,-1.90
2019-01-23T07:42:01.887Z,-2.00
2019-01-23T07:44:33.582Z,-2.00
2019-01-23T07:47:05.376Z,-2.00
2019-01-23T07:49:36.992Z,-2.00
2019-01-23T07:52:08.484Z,-2.10
2019-01-23T07:54:39.988Z,-2.10
2019-01-23T07:57:11.647Z,-2.10
2019-01-23T07:59:43.178Z,-2.10
2019-01-23T08:02:14.693Z,-2.10
2019-01-23T08:04:46.176Z,-2.10
2019-01-23T08:07:18.153Z,-2.10
2019-01-23T08:09:49.692Z,-2.00
2019-01-23T08:12:21.192Z,-2.00
2019-01-23T08:14:52.736Z,-1.90
2019-01-23T08:17:24.324Z,-1.90
2019-01-23T08:19:55.736Z,-1.80
2019-01-23T08:22:27.290Z,-1.80
2019-01-23T08:24:58.750Z,-1.70
2019-01-23T08:27:30.196Z,-1.70
2019-01-23T08:30:01.684Z,-1.60
2019-01-23T08:32:35.276Z,-1.60
2019-01-23T08:35:07.747Z,-1.50
2019-01-23T08:37:39.310Z,-1.50
2019-01-23T08:40:13.577Z,-1.50
2019-01-23T08:42:45.067Z,-1.50
2019-01-23T08:45:16.743Z,-1.60
2019-01-23T08:47:48.240Z,-1.50
2019-01-23T08:50:30.154Z,-1.60
2019-01-23T08:53:01.921Z,-1.50
2019-01-23T08:55:33.416Z,-1.60
2019-01-23T08:58:04.916Z,-1.50
2019-01-23T09:00:36.424Z,-1.40
2019-01-23T09:03:08.191Z,-1.40
2019-01-23T09:05:39.919Z,-1.40
2019-01-23T09:08:12.292Z,-1.40
2019-01-23T09:10:43.783Z,-1.40
2019-01-23T09:13:15.205Z,-1.40
2019-01-23T09:15:46.727Z,-1.40
2019-01-23T09:18:18.063Z,-1.40
2019-01-23T09:20:49.607Z,-1.30
2019-01-23T09:23:20.985Z,-1.30
2019-01-23T09:25:52.434Z,-1.20
2019-01-23T09:28:24.008Z,-1.20
2019-01-23T09:31:49.479Z,-1.20
2019-01-23T09:35:09.260Z,-1.10
2019-01-23T09:38:23.427Z,-1.10
2019-01-23T09:41:40.942Z,-1.00
2019-01-23T09:45:22.756Z,-0.90
2019-01-23T09:48:21.564Z,-0.90
2019-01-23T09:51:32.437Z,-0.90
2019-01-23T09:54:12.146Z,-0.80
2019-01-23T09:56:49.227Z,-0.70
2019-01-23T09:59:22.780Z,-0.60
2019-01-23T10:01:54.275Z,-0.60
2019-01-23T10:04:25.898Z,-0.60
2019-01-23T10:06:57.366Z,-0.70
2019-01-23T10:09:28.802Z,-0.80
2019-01-23T10:12:00.415Z,-0.70
2019-01-23T10:14:31.868Z,-0.70
2019-01-23T10:17:03.494Z,-0.70
2019-01-23T10:19:36.170Z,-0.70
2019-01-23T10:22:08.442Z,-0.60
2019-01-23T10:24:39.847Z,-0.50
2019-01-23T10:27:11.334Z,-0.50
2019-01-23T10:29:42.878Z,-0.50
2019-01-23T10:32:14.367Z,-0.50
2019-01-23T10:34:45.802Z,-0.40
2019-01-23T10:37:19.669Z,-0.30
2019-01-23T10:39:50.340Z,-0.20
2019-01-23T10:42:21.723Z,-0.20
2019-01-23T10:44:53.248Z,0.00
2019-01-23T10:47:24.767Z,-0.10
2019-01-23T10:49:56.244Z,-0.10
2019-01-23T10:52:27.773Z,0.00
2019-01-23T10:54:59.748Z,0.00
2019-01-23T10:57:31.256Z,0.10
2019-01-23T11:00:03.274Z,0.10
2019-01-23T11:02:34.700Z,0.00
2019-01-23T11:05:07.771Z,0.10
2019-01-23T11:07:39.429Z,0.10
2019-01-23T11:10:15.144Z,0.10
2019-01-23T11:12:46.662Z,0.10
2019-01-23T11:15:18.133Z,0.20
2019-01-23T11:17:49.798Z,0.20
2019-01-23T11:20:21.529Z,0.20
2019-01-23T11:22:52.921Z,0.20
2019-01-23T11:25:24.357Z,0.20
2019-01-23T11:27:55.805Z,0.20
2019-01-23T11:30:27.991Z,0.20
2019-01-23T11:32:59.478Z,0.10
2019-01-23T11:35:31.311Z,0.20
2019-01-23T11:38:03.263Z,0.30
2019-01-23T11:40:34.765Z,0.30
2019-01-23T11:43:06.364Z,0.40
2019-01-23T11:45:37.879Z,0.40
2019-01-23T11:48:09.450Z,0.50
2019-01-23T11:50:41.119Z,0.60
2019-01-23T11:53:12.743Z,0.60
2019-01-23T11:55:44.518Z,0.70
2019-01-23T11:58:15.936Z,0.70
2019-01-23T12:00:47.558Z,0.80
2019-01-23T12:03:20.961Z,0.80
2019-01-23T12:05:52.255Z,0.90
2019-01-23T12:08:23.791Z,0.80
2019-01-23T12:10:55.263Z,0.70
2019-01-23T12:13:27.405Z,0.70
2019-01-23T12:15:58.847Z,0.80
2019-01-23T12:18:30.352Z,0.70
2019-01-23T12:21:01.907Z,0.50
2019-01-23T12:23:33.433Z,0.60
2019-01-23T12:26:05.947Z,0.50
2019-01-23T12:28:37.412Z,0.40
2019-01-23T12:31:08.849Z,0.40
2019-01-23T12:33:40.192Z,0.50
2019-01-23T12:36:11.660Z,0.50
2019-01-23T12:38:43.140Z,0.40
2019-01-23T12:41:14.592Z,0.30
2019-01-23T12:43:46.045Z,0.30
2019-01-23T12:46:17.553Z,0.40
2019-01-23T12:48:49.070Z,0.40
2019-01-23T12:51:20.541Z,0.40
2019-01-23T12:53:52.010Z,0.30
2019-01-23T12:56:23.567Z,0.30
2019-01-23T12:58:55.068Z,0.30
2019-01-23T13:01:26.481Z,0.20
2019-01-23T13:03:57.930Z,0.20
2019-01-23T13:06:29.385Z,0.30
2019-01-23T13:09:01.014Z,0.30
2019-01-23T13:11:34.157Z,0.30
2019-01-23T13:14:05.843Z,0.40
2019-01-23T13:16:37.230Z,0.40
2019-01-23T13:19:08.622Z,0.40
2019-01-23T13:21:40.613Z,0.30
2019-01-23T13:24:12.299Z,0.30
2019-01-23T13:26:43.800Z,0.30
2019-01-23T13:29:15.270Z,0.30
2019-01-23T13:31:49.278Z,0.20
2019-01-23T13:34:19.857Z,0.20
2019-01-23T13:36:51.334Z,0.20
2019-01-23T13:39:22.869Z,0.20
2019-01-23T13:41:54.292Z,0.20
2019-01-23T13:44:25.874Z,0.20
2019-01-23T13:46:57.706Z,0.30
2019-01-23T13:49:29.168Z,0.30
2019-01-23T13:52:00.622Z,0.40
2019-01-23T13:54:32.134Z,0.40
2019-01-23T13:57:03.847Z,0.40
2019-01-23T13:59:35.349Z,0.40
2019-01-23T14:02:06.746Z,0.30
2019-01-23T14:04:38.243Z,0.40
2019-01-23T14:07:09.739Z,0.40
2019-01-23T14:09:41.335Z,0.40
2019-01-23T14:12:13.066Z,0.40
2019-01-23T14:14:44.488Z,0.20
2019-01-23T14:17:16.326Z,0.30
2019-01-23T14:19:50.114Z,0.20
2019-01-23T14:22:22.906Z,0.30
2019-01-23T14:24:54.474Z,0.30
2019-01-23T14:27:25.901Z,0.40
2019-01-23T14:29:57.302Z,0.30
2019-01-23T14:32:29.076Z,0.30
2019-01-23T14:35:01.615Z,0.30
2019-01-23T14:37:33.207Z,0.30
2019-01-23T14:40:05.631Z,0.30
2019-01-23T14:42:37.100Z,0.30
2019-01-23T14:45:08.934Z,0.30
2019-01-23T14:47:40.477Z,0.30
2019-01-23T14:50:13.692Z,0.30
2019-01-23T14:52:46.320Z,0.30
2019-01-23T14:55:17.912Z,0.20
2019-01-23T14:57:49.905Z,0.30
2019-01-23T15:00:24.737Z,0.30
2019-01-23T15:02:56.265Z,0.30
2019-01-23T15:05:27.900Z,0.30
2019-01-23T15:07:59.508Z,0.30
2019-01-23T15:10:32.353Z,0.40
2019-01-23T15:13:04.197Z,0.20
2019-01-23T15:15:35.657Z,0.20
2019-01-23T15:18:07.427Z,0.20
2019-01-23T15:20:40.929Z,0.20
2019-01-23T15:23:12.538Z,0.20
2019-01-23T15:25:43.989Z,0.20
2019-01-23T15:28:15.427Z,0.30
2019-01-23T15:30:46.821Z,0.40
2019-01-23T15:33:18.283Z,0.50
2019-01-23T15:35:49.846Z,0.60
2019-01-23T15:38:21.322Z,0.60
2019-01-23T15:40:52.688Z,0.50
2019-01-23T15:43:24.045Z,0.60
2019-01-23T15:45:55.548Z,0.60
2019-01-23T15:48:27.033Z,0.60
2019-01-23T15:50:58.528Z,0.70
2019-01-23T15:53:29.981Z,0.70
2019-01-23T15:56:01.594Z,0.80
2019-01-23T15:58:33.663Z,1.00
2019-01-23T16:01:05.174Z,1.10
2019-01-23T16:03:36.652Z,1.10
2019-01-23T16:06:08.087Z,1.20
2019-01-23T16:08:39.447Z,1.30
2019-01-23T16:11:10.915Z,1.40
2019-01-23T16:13:42.625Z,1.50
2019-01-23T16:16:14.131Z,1.40
2019-01-23T16:18:45.630Z,1.40
2019-01-23T16:21:17.113Z,1.30
2019-01-23T16:23:48.902Z,1.30
2019-01-23T16:26:20.785Z,1.30
2019-01-23T16:28:52.723Z,1.40
2019-01-23T16:31:24.200Z,1.40
2019-01-23T16:33:57.517Z,1.40
2019-01-23T16:36:29.372Z,1.50
2019-01-23T16:39:01.128Z,1.60
2019-01-23T16:41:35.364Z,1.50
2019-01-23T16:44:07.267Z,1.40
2019-01-23T16:46:39.737Z,1.20
2019-01-23T16:49:14.062Z,1.10
2019-01-23T16:51:55.616Z,1.10
2019-01-23T16:54:24.006Z,1.00
2019-01-23T16:56:55.664Z,1.00
2019-01-23T16:59:27.367Z,1.00
2019-01-23T17:01:58.924Z,0.80
2019-01-23T17:04:30.424Z,0.90
2019-01-23T17:07:02.033Z,0.80
2019-01-23T17:09:33.897Z,0.80
2019-01-23T17:12:09.321Z,0.80
2019-01-23T17:14:39.354Z,0.70
2019-01-23T17:17:10.849Z,0.70
2019-01-23T17:19:42.561Z,0.70
2019-01-23T17:22:14.009Z,0.60
2019-01-23T17:24:45.547Z,0.60
2019-01-23T17:27:17.029Z,0.70
2019-01-23T17:29:48.552Z,0.60
2019-01-23T17:32:20.024Z,0.60
2019-01-23T17:34:51.835Z,0.60
2019-01-23T17:37:23.748Z,0.70
2019-01-23T17:39:55.764Z,0.60
2019-01-23T17:42:27.347Z,0.50
2019-01-23T17:44:59.032Z,0.30
2019-01-23T17:47:30.687Z,0.10
2019-01-23T17:50:02.216Z,0.00
2019-01-23T17:52:33.530Z,0.00
2019-01-23T17:55:07.044Z,-0.10
2019-01-23T17:57:38.766Z,-0.10
2019-01-23T18:00:16.539Z,-0.20
2019-01-23T18:02:52.642Z,-0.20
2019-01-23T18:05:21.573Z,-0.30
2019-01-23T18:07:53.066Z,-0.40
2019-01-23T18:10:25.211Z,-0.30
2019-01-23T18:12:56.755Z,-0.20
2019-01-23T18:15:28.384Z,-0.20
2019-01-23T18:17:59.924Z,-0.20
2019-01-23T18:20:31.535Z,-0.30
2019-01-23T18:23:03.171Z,-0.20
2019-01-23T18:25:35.190Z,-0.20
2019-01-23T18:28:07.901Z,-0.20
2019-01-23T18:30:48.842Z,-0.20
2019-01-23T18:33:27.084Z,-0.30
2019-01-23T18:36:39.531Z,-0.20
2019-01-23T18:40:03.243Z,-0.20
2019-01-23T18:43:29.354Z,-0.10
2019-01-23T18:46:53.411Z,0.00
2019-01-23T18:50:05.474Z,-0.10
2019-01-23T18:52:37.996Z,-0.20
2019-01-23T18:55:12.777Z,-0.20
2019-01-23T18:57:44.280Z,-0.30
2019-01-23T19:00:19.984Z,-0.30
2019-01-23T19:02:51.483Z,-0.20
2019-01-23T19:05:23.482Z,-0.20
2019-01-23T19:07:54.978Z,-0.20
2019-01-23T19:10:28.174Z,-0.20
2019-01-23T19:12:59.675Z,-0.30
2019-01-23T19:15:31.219Z,-0.40
2019-01-23T19:18:03.700Z,-0.40
2019-01-23T19:20:35.180Z,-0.40
2019-01-23T19:23:06.969Z,-0.40
2019-01-23T19:25:38.443Z,-0.40
2019-01-23T19:28:11.267Z,-0.30
2019-01-23T19:30:42.679Z,-0.40
2019-01-23T19:33:14.250Z,-0.40
2019-01-23T19:35:46.013Z,-0.40
2019-01-23T19:38:17.458Z,-0.50
2019-01-23T19:40:48.976Z,-0.50
2019-01-23T19:43:20.450Z,-0.40
2019-01-23T19:45:51.915Z,-0.50
2019-01-23T19:48:23.457Z,-0.50
2019-01-23T19:50:54.941Z,-0.50
2019-01-23T19:53:26.418Z,-0.50
2019-01-23T19:55:57.854Z,-0.50
2019-01-23T19:58:29.313Z,-0.40
2019-01-23T20:01:00.852Z,-0.40
2019-01-23T20:03:32.276Z,-0.40
2019-01-23T20:06:03.855Z,-0.40
2019-01-23T20:08:35.265Z,-0.40
2019-01-23T20:11:08.241Z,-0.40
2019-01-23T20:13:40.151Z,-0.30
2019-01-23T20:16:11.556Z,-0.30
2019-01-23T20:18:42.917Z,-0.40
2019-01-23T20:21:14.360Z,-0.50
2019-01-23T20:23:45.745Z,-0.50
2019-01-23T20:26:17.313Z,-0.50
2019-01-23T20:28:48.838Z,-0.50
2019-01-23T20:31:20.419Z,-0.60
2019-01-23T20:33:51.897Z,-0.60
2019-01-23T20:36:24.633Z,-0.60
2019-01-23T20:38:56.075Z,-0.70
2019-01-23T20:41:27.529Z,-0.60
2019-01-23T20:43:58.975Z,-0.60
2019-01-23T20:46:30.422Z,-0.70
2019-01-23T20:49:02.038Z,-0.70
2019-01-23T20:51:33.480Z,-0.70
2019-01-23T20:54:05.160Z,-0.80
2019-01-23T20:56:36.603Z,-0.70
2019-01-23T20:59:12.110Z,-0.60
2019-01-23T21:01:43.651Z,-0.70
2019-01-23T21:04:15.188Z,-0.70
2019-01-23T21:06:46.657Z,-0.70
2019-01-23T21:09:18.241Z,-0.70
2019-01-23T21:11:49.769Z,-0.80
2019-01-23T21:14:21.240Z,-0.90
2019-01-23T21:16:53.135Z,-0.80
2019-01-23T21:19:24.690Z,-0.80
2019-01-23T21:21:56.216Z,-0.80
2019-01-23T21:24:28.177Z,-0.80
2019-01-23T21:27:00.017Z,-0.70
2019-01-23T21:29:37.013Z,-0.60
2019-01-23T21:32:08.590Z,-0.70
2019-01-23T21:34:40.025Z,-0.70
2019-01-23T21:37:11.469Z,-0.70
2019-01-23T21:39:43.079Z,-0.60
2019-01-23T21:42:16.846Z,-0.70
2019-01-23T21:44:48.204Z,-0.60
2019-01-23T21:47:19.661Z,-0.60
2019-01-23T21:49:51.171Z,-0.60
2019-01-23T21:52:22.651Z,-0.60
2019-01-23T21:54:54.027Z,-0.70
2019-01-23T21:57:25.507Z,-0.60
2019-01-23T21:59:57.017Z,-0.70
2019-01-23T22:02:28.516Z,-0.60
2019-01-23T22:05:00.218Z,-0.50
2019-01-23T22:07:31.627Z,-0.50
2019-01-23T22:10:03.156Z,-0.60
2019-01-23T22:12:34.639Z,-0.60
2019-01-23T22:15:11.256Z,-0.70
2019-01-23T22:17:42.692Z,-0.80
2019-01-23T22:20:17.097Z,-0.90
2019-01-23T22:22:48.985Z,-0.90
2019-01-23T22:25:24.015Z,-0.90
2019-01-23T22:27:55.607Z,-0.90
2019-01-23T22:30:30.368Z,-0.90
2019-01-23T22:33:01.827Z,-0.90
2019-01-23T22:35:33.336Z,-1.00
2019-01-23T22:38:05.106Z,-1.00
2019-01-23T22:40:36.556Z,-1.10
2019-01-23T22:43:11.269Z,-1.00
2019-01-23T22:45:41.175Z,-1.00
2019-01-23T22:48:12.608Z,-1.00
2019-01-23T22:50:44.054Z,-1.00
2019-01-23T22:53:15.450Z,-1.10
2019-01-23T22:55:47.279Z,-1.10
2019-01-23T22:58:18.681Z,-1.10
2019-01-23T23:01:27.269Z,-1.10
2019-01-23T23:04:03.333Z,-1.10
2019-01-23T23:06:35.261Z,-1.10
2019-01-23T23:09:10.886Z,-1.10
2019-01-23T23:11:42.443Z,-1.10
2019-01-23T23:14:16.632Z,-1.10
2019-01-23T23:16:48.042Z,-1.20
2019-01-23T23:19:19.494Z,-1.10
2019-01-23T23:21:51.034Z,-1.20
2019-01-23T23:24:22.581Z,-1.10
2019-01-23T23:26:55.343Z,-1.00
2019-01-23T23:29:27.215Z,-1.20
2019-01-23T23:31:58.856Z,-1.10
2019-01-23T23:34:30.410Z,-1.20
2019-01-23T23:37:02.057Z,-1.20
2019-01-23T23:39:33.530Z,-1.20
2019-01-23T23:42:05.001Z,-1.20
2019-01-23T23:44:36.552Z,-1.20
2019-01-23T23:47:08.111Z,-1.30
2019-01-23T23:49:39.653Z,-1.30
2019-01-23T23:52:11.107Z,-1.40
2019-01-23T23:54:42.755Z,-1.50
2019-01-23T23:57:14.301Z,-1.60
2019-01-23T23:59:45.916Z,-1.50
